CCA57 ZPPP-VMMC
Flight info
| Callsign | CCA57 |
|---|---|
| Flight time | N/A |
| Altitude | FL351 |
| Route | LXI4Q LXI A599 POU POU1A |
| Aircraft | A21N/M-SDE1E2E3FGHIJ2J3J4J5M1RWXYZ/LB1D1 |
Departure
| Time | N/A |
|---|---|
| Airport | Kunming Changshui International Airport (ZPPP) |
Arrival
| Time | 2026-04-22 14:26 |
|---|---|
| Airport | Macau International Airport (VMMC) |
| Time | Latitude | Longitude | Altitude | Speed | Heading |
|---|---|---|---|---|---|
| 2026-04-22 13:50 | 23.33478 | 111.21935 | 34958 ft | 527 kts | 103° |
| 2026-04-22 13:50 | 23.32691 | 111.25839 | 34951 ft | 528 kts | 103° |
| 2026-04-22 13:50 | 23.31101 | 111.33624 | 34966 ft | 529 kts | 103° |
| 2026-04-22 13:51 | 23.29499 | 111.41429 | 34954 ft | 530 kts | 103° |
| 2026-04-22 13:51 | 23.27893 | 111.49231 | 34957 ft | 530 kts | 103° |
| 2026-04-22 13:52 | 23.26272 | 111.57033 | 34952 ft | 530 kts | 104° |
| 2026-04-22 13:52 | 23.24616 | 111.64824 | 34960 ft | 530 kts | 104° |
| 2026-04-22 13:53 | 23.22964 | 111.72608 | 34961 ft | 529 kts | 104° |
| 2026-04-22 13:53 | 23.21318 | 111.80370 | 34950 ft | 528 kts | 103° |
| 2026-04-22 13:54 | 23.19685 | 111.88131 | 34953 ft | 527 kts | 103° |
| 2026-04-22 13:54 | 23.18076 | 111.95896 | 34960 ft | 527 kts | 103° |
| 2026-04-22 13:55 | 23.16438 | 112.03638 | 34959 ft | 527 kts | 103° |
| 2026-04-22 13:55 | 23.15632 | 112.07485 | 34843 ft | 517 kts | 103° |
| 2026-04-22 13:55 | 23.14851 | 112.11280 | 34435 ft | 517 kts | 103° |
| 2026-04-22 13:56 | 23.14066 | 112.15086 | 34151 ft | 517 kts | 103° |
| 2026-04-22 13:56 | 23.13274 | 112.18887 | 33925 ft | 518 kts | 103° |
| 2026-04-22 13:56 | 23.12475 | 112.22698 | 33673 ft | 518 kts | 103° |
| 2026-04-22 13:56 | 23.11676 | 112.26496 | 33117 ft | 515 kts | 103° |
| 2026-04-22 13:57 | 23.10879 | 112.30279 | 32307 ft | 515 kts | 103° |
| 2026-04-22 13:57 | 23.10079 | 112.34073 | 31450 ft | 516 kts | 103° |
| 2026-04-22 13:57 | 23.09278 | 112.37864 | 30608 ft | 518 kts | 103° |
| 2026-04-22 13:57 | 23.08472 | 112.41683 | 29634 ft | 521 kts | 103° |
| 2026-04-22 13:58 | 23.07661 | 112.45520 | 28513 ft | 525 kts | 104° |
| 2026-04-22 13:58 | 23.06964 | 112.49423 | 27488 ft | 529 kts | 97° |
| 2026-04-22 13:58 | 23.06659 | 112.53395 | 26519 ft | 531 kts | 94° |
| 2026-04-22 13:58 | 23.06403 | 112.57382 | 25542 ft | 531 kts | 94° |
| 2026-04-22 13:59 | 23.06141 | 112.61369 | 24709 ft | 527 kts | 94° |
| 2026-04-22 13:59 | 23.05875 | 112.65309 | 24108 ft | 521 kts | 94° |
| 2026-04-22 13:59 | 23.05616 | 112.69191 | 23481 ft | 513 kts | 94° |
| 2026-04-22 13:59 | 23.05359 | 112.73020 | 22667 ft | 508 kts | 95° |
| 2026-04-22 14:00 | 23.05101 | 112.76816 | 22023 ft | 502 kts | 95° |
| 2026-04-22 14:00 | 23.04845 | 112.80560 | 21583 ft | 493 kts | 95° |
| 2026-04-22 14:00 | 23.04593 | 112.84227 | 21180 ft | 484 kts | 95° |
| 2026-04-22 14:00 | 23.04344 | 112.87841 | 20612 ft | 477 kts | 95° |
| 2026-04-22 14:01 | 23.04098 | 112.91396 | 20000 ft | 470 kts | 95° |
| 2026-04-22 14:01 | 23.03847 | 112.94906 | 19395 ft | 464 kts | 95° |
| 2026-04-22 14:01 | 23.03599 | 112.98373 | 18805 ft | 459 kts | 95° |
| 2026-04-22 14:01 | 23.03354 | 113.01767 | 18228 ft | 453 kts | 95° |
| 2026-04-22 14:02 | 23.03104 | 113.05182 | 17515 ft | 450 kts | 95° |
| 2026-04-22 14:02 | 23.02863 | 113.08552 | 16845 ft | 448 kts | 95° |
| 2026-04-22 14:02 | 23.02640 | 113.11900 | 16391 ft | 444 kts | 94° |
| 2026-04-22 14:02 | 23.02420 | 113.15224 | 15737 ft | 440 kts | 95° |
| 2026-04-22 14:03 | 23.02059 | 113.18491 | 15213 ft | 436 kts | 103° |
| 2026-04-22 14:03 | 23.01029 | 113.21540 | 14739 ft | 430 kts | 118° |
| 2026-04-22 14:03 | 22.99658 | 113.24406 | 14324 ft | 427 kts | 120° |
| 2026-04-22 14:03 | 22.98270 | 113.27247 | 13928 ft | 424 kts | 120° |
| 2026-04-22 14:04 | 22.96904 | 113.30065 | 13522 ft | 422 kts | 120° |
| 2026-04-22 14:04 | 22.95559 | 113.32861 | 12990 ft | 418 kts | 119° |
| 2026-04-22 14:04 | 22.94228 | 113.35649 | 12430 ft | 414 kts | 119° |
| 2026-04-22 14:04 | 22.92912 | 113.38407 | 11936 ft | 409 kts | 119° |
| 2026-04-22 14:05 | 22.91627 | 113.41100 | 11610 ft | 397 kts | 120° |
| 2026-04-22 14:05 | 22.90380 | 113.43708 | 11378 ft | 384 kts | 120° |
| 2026-04-22 14:05 | 22.87518 | 113.48235 | 10972 ft | 349 kts | 146° |
| 2026-04-22 14:06 | 22.85457 | 113.49413 | 10788 ft | 326 kts | 169° |
| 2026-04-22 14:06 | 22.83294 | 113.49827 | 10657 ft | 309 kts | 177° |
| 2026-04-22 14:06 | 22.81205 | 113.50134 | 10510 ft | 299 kts | 176° |
| 2026-04-22 14:06 | 22.79162 | 113.50483 | 10157 ft | 297 kts | 175° |
| 2026-04-22 14:07 | 22.77135 | 113.50876 | 9780 ft | 296 kts | 174° |
| 2026-04-22 14:07 | 22.75140 | 113.51292 | 9466 ft | 291 kts | 173° |
| 2026-04-22 14:07 | 22.73157 | 113.51720 | 9061 ft | 290 kts | 173° |
| 2026-04-22 14:07 | 22.71195 | 113.52150 | 8816 ft | 288 kts | 173° |
| 2026-04-22 14:08 | 22.69246 | 113.52578 | 8632 ft | 286 kts | 173° |
| 2026-04-22 14:08 | 22.67316 | 113.53008 | 8447 ft | 280 kts | 172° |
| 2026-04-22 14:08 | 22.65428 | 113.53432 | 8254 ft | 275 kts | 172° |
| 2026-04-22 14:08 | 22.63574 | 113.53847 | 8058 ft | 271 kts | 172° |
| 2026-04-22 14:09 | 22.61753 | 113.54254 | 7868 ft | 265 kts | 172° |
| 2026-04-22 14:09 | 22.59962 | 113.54653 | 7686 ft | 264 kts | 172° |
| 2026-04-22 14:09 | 22.58173 | 113.55048 | 7409 ft | 263 kts | 172° |
| 2026-04-22 14:09 | 22.56389 | 113.55444 | 7165 ft | 258 kts | 172° |
| 2026-04-22 14:10 | 22.54662 | 113.55830 | 6933 ft | 252 kts | 172° |
| 2026-04-22 14:10 | 22.52995 | 113.56203 | 6843 ft | 237 kts | 172° |
| 2026-04-22 14:10 | 22.51479 | 113.56662 | 6806 ft | 218 kts | 167° |
| 2026-04-22 14:10 | 22.50063 | 113.57149 | 6526 ft | 212 kts | 167° |
| 2026-04-22 14:11 | 22.48667 | 113.57617 | 6220 ft | 209 kts | 167° |
| 2026-04-22 14:11 | 22.47284 | 113.58074 | 5908 ft | 205 kts | 167° |
| 2026-04-22 14:11 | 22.45930 | 113.58516 | 5619 ft | 203 kts | 167° |
| 2026-04-22 14:11 | 22.44588 | 113.58953 | 5353 ft | 201 kts | 167° |
| 2026-04-22 14:12 | 22.43269 | 113.59383 | 5093 ft | 198 kts | 167° |
| 2026-04-22 14:12 | 22.41964 | 113.59806 | 4838 ft | 195 kts | 167° |
| 2026-04-22 14:12 | 22.40677 | 113.60221 | 4588 ft | 191 kts | 167° |
| 2026-04-22 14:12 | 22.39416 | 113.60628 | 4338 ft | 188 kts | 167° |
| 2026-04-22 14:13 | 22.38179 | 113.61031 | 4099 ft | 186 kts | 167° |
| 2026-04-22 14:13 | 22.36945 | 113.61431 | 3859 ft | 185 kts | 167° |
| 2026-04-22 14:13 | 22.35721 | 113.61825 | 3659 ft | 183 kts | 168° |
| 2026-04-22 14:13 | 22.34500 | 113.62207 | 3539 ft | 181 kts | 168° |
| 2026-04-22 14:14 | 22.33299 | 113.62586 | 3384 ft | 179 kts | 167° |
| 2026-04-22 14:14 | 22.32108 | 113.62959 | 3203 ft | 179 kts | 168° |
| 2026-04-22 14:14 | 22.30919 | 113.63333 | 3029 ft | 178 kts | 168° |
| 2026-04-22 14:14 | 22.29734 | 113.63704 | 2854 ft | 177 kts | 168° |
| 2026-04-22 14:15 | 22.28549 | 113.64053 | 2684 ft | 176 kts | 172° |
| 2026-04-22 14:15 | 22.27355 | 113.63997 | 2514 ft | 171 kts | 193° |
| 2026-04-22 14:15 | 22.26253 | 113.63588 | 2352 ft | 167 kts | 207° |
| 2026-04-22 14:15 | 22.25325 | 113.62865 | 2181 ft | 164 kts | 224° |
| 2026-04-22 14:16 | 22.24615 | 113.61969 | 2003 ft | 150 kts | 231° |
| 2026-04-22 14:16 | 22.23999 | 113.61080 | 1849 ft | 145 kts | 231° |
| 2026-04-22 14:16 | 22.23393 | 113.60190 | 1776 ft | 140 kts | 232° |
| 2026-04-22 14:16 | 22.22829 | 113.59395 | 1605 ft | 132 kts | 229° |
| 2026-04-22 14:17 | 22.22279 | 113.58616 | 1406 ft | 131 kts | 230° |
| 2026-04-22 14:17 | 22.21658 | 113.57907 | 1212 ft | 132 kts | 213° |
| 2026-04-22 14:17 | 22.20821 | 113.57504 | 1042 ft | 133 kts | 197° |
| 2026-04-22 14:17 | 22.19902 | 113.57411 | 875 ft | 135 kts | 179° |
| 2026-04-22 14:18 | 22.18990 | 113.57649 | 707 ft | 135 kts | 161° |
| 2026-04-22 14:18 | 22.18116 | 113.57988 | 553 ft | 134 kts | 162° |
| 2026-04-22 14:18 | 22.17245 | 113.58317 | 325 ft | 134 kts | 165° |
| 2026-04-22 14:18 | 22.16351 | 113.58619 | 160 ft | 134 kts | 163° |
| 2026-04-22 14:19 | 22.15483 | 113.58955 | 61 ft | 132 kts | 163° |
| 2026-04-22 14:19 | 22.14534 | 113.59291 | 632 ft | 140 kts | 163° |
| 2026-04-22 14:19 | 22.13633 | 113.59614 | 1223 ft | 133 kts | 167° |
| 2026-04-22 14:19 | 22.12726 | 113.59944 | 1560 ft | 153 kts | 167° |
| 2026-04-22 14:20 | 22.10384 | 113.60769 | 2493 ft | 194 kts | 165° |
| 2026-04-22 14:20 | 22.09038 | 113.61284 | 2909 ft | 221 kts | 165° |
| 2026-04-22 14:20 | 22.07527 | 113.61850 | 3031 ft | 233 kts | 165° |
| 2026-04-22 14:21 | 22.04906 | 113.63785 | 3015 ft | 244 kts | 123° |
| 2026-04-22 14:21 | 22.04404 | 113.65554 | 3005 ft | 249 kts | 95° |
| 2026-04-22 14:22 | 22.05682 | 113.68937 | 3002 ft | 254 kts | 40° |
| 2026-04-22 14:22 | 22.07185 | 113.69852 | 3010 ft | 246 kts | 19° |
| 2026-04-22 14:22 | 22.10369 | 113.70741 | 2983 ft | 244 kts | 344° |
| 2026-04-22 14:23 | 22.11785 | 113.69902 | 2536 ft | 229 kts | 305° |
| 2026-04-22 14:23 | 22.12288 | 113.68542 | 2589 ft | 169 kts | 276° |
| 2026-04-22 14:23 | 22.12065 | 113.67359 | 1929 ft | 164 kts | 245° |
| 2026-04-22 14:23 | 22.11562 | 113.66297 | 1413 ft | 153 kts | 236° |
| 2026-04-22 14:24 | 22.11209 | 113.65312 | 1176 ft | 138 kts | 257° |
| 2026-04-22 14:24 | 22.11260 | 113.64271 | 912 ft | 142 kts | 276° |
| 2026-04-22 14:24 | 22.11449 | 113.63231 | 986 ft | 143 kts | 277° |
| 2026-04-22 14:24 | 22.11690 | 113.62197 | 844 ft | 143 kts | 284° |
| 2026-04-22 14:25 | 22.12104 | 113.61221 | 623 ft | 142 kts | 295° |
| 2026-04-22 14:25 | 22.12703 | 113.60376 | 401 ft | 143 kts | 311° |
| 2026-04-22 14:25 | 22.13519 | 113.59741 | 146 ft | 149 kts | 329° |
| 2026-04-22 14:25 | 22.14482 | 113.59320 | 44 ft | 151 kts | 337° |
| 2026-04-22 14:26 | 22.15399 | 113.58973 | 33 ft | 123 kts | 339° |
| 2026-04-22 14:26 | 22.16022 | 113.58753 | 35 ft | 38 kts | 340° |
| 2026-04-22 14:26 | 22.16054 | 113.58741 | 35 ft | 1 kts | 340° |
| 2026-04-22 14:26 | 22.16077 | 113.58732 | 35 ft | 6 kts | 340° |
| 2026-04-22 14:27 | 22.16126 | 113.58712 | 35 ft | 10 kts | 339° |
| 2026-04-22 14:27 | 22.16194 | 113.58642 | 34 ft | 17 kts | 287° |
| 2026-04-22 14:27 | 22.16227 | 113.58510 | 34 ft | 19 kts | 282° |
| 2026-04-22 14:27 | 22.16254 | 113.58366 | 34 ft | 20 kts | 281° |
| 2026-04-22 14:28 | 22.16228 | 113.58211 | 34 ft | 22 kts | 253° |
| 2026-04-22 14:28 | 22.16180 | 113.58049 | 34 ft | 23 kts | 251° |
| 2026-04-22 14:28 | 22.16126 | 113.57878 | 34 ft | 25 kts | 251° |
| 2026-04-22 14:28 | 22.16026 | 113.57737 | 34 ft | 26 kts | 188° |
| 2026-04-22 14:29 | 22.15844 | 113.57691 | 34 ft | 28 kts | 201° |
| 2026-04-22 14:29 | 22.15721 | 113.57647 | 34 ft | 15 kts | 198° |
| 2026-04-22 14:29 | 22.15658 | 113.57609 | 34 ft | 0 kts | 217° |
| 2026-04-22 14:30 | 22.15635 | 113.57590 | 34 ft | 9 kts | 220° |
| 2026-04-22 14:30 | 22.15615 | 113.57523 | 34 ft | 11 kts | 268° |
| 2026-04-22 14:30 | 22.15636 | 113.57483 | 34 ft | 1 kts | 333° |
| 2026-04-22 14:30 | 22.15647 | 113.57477 | 34 ft | 0 kts | 329° |
| 2026-04-22 14:31 | 22.15646 | 113.57477 | 34 ft | 0 kts | 329° |
| 2026-04-22 14:31 | 22.15645 | 113.57478 | 34 ft | 0 kts | 329° |